Terminal Aerodrome Forecast
Issued by NWS La Crosse, WI

Home | Current Version | Previous Version | Text Only | Print | Product List | Glossary On
Versions: 1 2 3 4 5 6 7 8 9 10 11 12 13 14 15 16 17 18 19 20 21 22
000
FTUS43 KARX 301735
TAFLSE
TAF
KLSE 301735Z 3018/0118 07010G17KT P6SM -SHRA BKN040
     FM010300 03009KT P6SM VCSH SCT020 BKN040
     FM011000 03008KT P6SM BKN035=

USA.gov is the U.S. government's official web portal to all federal, state and local government web resources and services.